createdAt,value
2023-02-03T00:03:56.380Z,25.14
2023-02-03T00:09:03.566Z,25.08
2023-02-03T00:14:10.774Z,25.04
2023-02-03T00:19:17.987Z,25.04
2023-02-03T00:24:25.123Z,25.12
2023-02-03T00:29:32.332Z,25.14
2023-02-03T00:34:39.497Z,25.06
2023-02-03T00:39:46.688Z,25.07
2023-02-03T00:44:53.876Z,25.05
2023-02-03T00:50:01.112Z,25.02
2023-02-03T00:55:08.250Z,25.05
2023-02-03T01:00:15.454Z,25.11
2023-02-03T01:05:22.593Z,25.15
2023-02-03T01:10:29.777Z,25.25
2023-02-03T01:15:36.987Z,25.28
2023-02-03T01:20:44.154Z,25.36
2023-02-03T01:25:51.336Z,25.46
2023-02-03T01:30:58.769Z,25.52
2023-02-03T01:36:05.712Z,25.54
2023-02-03T01:41:12.887Z,25.56
2023-02-03T01:46:20.196Z,25.69
2023-02-03T01:51:27.275Z,25.66
2023-02-03T01:56:34.446Z,25.68
2023-02-03T02:01:41.704Z,25.68
2023-02-03T02:06:48.805Z,25.71
2023-02-03T02:11:55.963Z,25.74
2023-02-03T02:17:03.311Z,25.77
2023-02-03T02:22:10.504Z,25.75
2023-02-03T02:27:17.654Z,25.77
2023-02-03T02:32:24.871Z,25.87
2023-02-03T02:37:32.012Z,25.87
2023-02-03T02:42:39.212Z,25.90
2023-02-03T02:47:46.426Z,25.93
2023-02-03T02:52:54.236Z,26.03
2023-02-03T02:58:01.364Z,26.04
2023-02-03T03:03:08.629Z,26.11
2023-02-03T03:08:15.778Z,26.18
2023-02-03T03:13:22.953Z,26.17
2023-02-03T03:18:30.142Z,26.22
2023-02-03T03:23:37.297Z,26.29
2023-02-03T03:28:44.468Z,26.36
2023-02-03T03:33:51.738Z,26.38
2023-02-03T03:38:58.936Z,26.45
2023-02-03T03:44:06.120Z,26.45
2023-02-03T03:49:13.379Z,26.47
2023-02-03T03:54:20.530Z,26.52
2023-02-03T03:59:27.697Z,26.58
2023-02-03T04:04:34.902Z,26.59
2023-02-03T04:09:42.048Z,26.64
2023-02-03T04:14:49.235Z,26.67
2023-02-03T04:19:56.451Z,26.74
2023-02-03T04:25:03.619Z,26.74
2023-02-03T04:30:10.783Z,26.75
2023-02-03T04:35:17.992Z,26.80
2023-02-03T04:40:25.405Z,26.75
2023-02-03T04:45:32.358Z,26.80
2023-02-03T04:50:39.562Z,26.80
2023-02-03T04:55:46.731Z,26.73
2023-02-03T05:00:54.011Z,26.81
2023-02-03T05:06:01.217Z,26.81
2023-02-03T05:11:08.390Z,26.80
2023-02-03T05:16:15.638Z,26.80
2023-02-03T05:21:22.762Z,26.80
2023-02-03T05:26:29.897Z,26.79
2023-02-03T05:31:37.081Z,26.69
2023-02-03T05:36:44.326Z,26.75
2023-02-03T05:41:51.469Z,26.69
2023-02-03T05:46:58.760Z,26.74
2023-02-03T05:52:05.974Z,26.79
2023-02-03T05:57:13.120Z,26.71
2023-02-03T06:02:20.306Z,26.74
2023-02-03T06:07:27.506Z,26.85
2023-02-03T06:12:34.611Z,26.91
2023-02-03T06:17:41.896Z,26.93
2023-02-03T06:22:49.096Z,26.97
2023-02-03T06:27:56.262Z,26.99
2023-02-03T06:33:03.418Z,27.03
2023-02-03T06:38:10.619Z,26.98
2023-02-03T06:43:17.786Z,27.00
2023-02-03T06:48:24.910Z,27.08
2023-02-03T06:53:32.074Z,27.05
2023-02-03T06:58:39.247Z,27.04
2023-02-03T07:03:46.454Z,27.04
2023-02-03T07:08:53.673Z,27.09
2023-02-03T07:14:00.845Z,27.19
2023-02-03T07:19:07.973Z,27.10
2023-02-03T07:24:15.153Z,27.15
2023-02-03T07:29:22.352Z,27.14
2023-02-03T07:34:29.575Z,27.36
2023-02-03T07:39:36.803Z,27.32
2023-02-03T07:44:43.892Z,27.32
2023-02-03T07:49:51.083Z,27.39
2023-02-03T07:54:58.322Z,27.52
2023-02-03T08:00:05.574Z,27.49
2023-02-03T08:05:12.870Z,27.43
2023-02-03T08:10:19.943Z,27.45
2023-02-03T08:15:27.125Z,27.36
2023-02-03T08:20:34.295Z,27.45
2023-02-03T08:25:41.509Z,27.45
2023-02-03T08:30:48.708Z,27.46
2023-02-03T08:35:55.992Z,27.46
2023-02-03T08:41:03.176Z,27.80
2023-02-03T08:46:10.585Z,27.87
2023-02-03T08:51:17.925Z,27.75
2023-02-03T08:56:25.292Z,27.82
2023-02-03T09:01:32.563Z,27.81
2023-02-03T09:06:39.783Z,27.82
2023-02-03T09:11:47.025Z,27.80
2023-02-03T09:16:54.264Z,27.84
2023-02-03T09:22:01.383Z,27.84
2023-02-03T09:27:08.586Z,27.84
2023-02-03T09:32:16.006Z,27.83
2023-02-03T09:37:23.114Z,27.90
2023-02-03T09:42:30.315Z,27.90
2023-02-03T09:47:37.475Z,27.86
2023-02-03T09:52:44.665Z,27.87
2023-02-03T09:57:51.888Z,27.84
2023-02-03T10:02:59.054Z,27.88
2023-02-03T10:08:06.209Z,27.84
2023-02-03T10:13:13.452Z,27.84
2023-02-03T10:18:20.690Z,27.84
2023-02-03T10:23:27.903Z,27.84
2023-02-03T10:28:35.195Z,27.79
2023-02-03T10:33:42.324Z,27.77
2023-02-03T10:38:49.543Z,27.79
2023-02-03T10:43:57.678Z,27.74
2023-02-03T10:49:04.007Z,27.73
2023-02-03T10:54:11.191Z,27.71
2023-02-03T10:59:18.485Z,27.65
2023-02-03T11:04:25.619Z,27.65
2023-02-03T11:09:33.863Z,27.62
2023-02-03T11:14:41.368Z,27.59
2023-02-03T11:19:48.612Z,27.62
2023-02-03T11:24:55.783Z,27.62
2023-02-03T11:30:03.087Z,27.64
2023-02-03T11:35:10.292Z,27.64
2023-02-03T11:40:17.588Z,27.64
2023-02-03T11:45:24.726Z,27.65
2023-02-03T11:50:31.880Z,27.70
2023-02-03T11:55:39.059Z,27.69
2023-02-03T12:00:46.340Z,27.66
2023-02-03T12:05:53.543Z,27.67
2023-02-03T12:11:00.820Z,27.66
2023-02-03T12:16:08.122Z,27.64
2023-02-03T12:21:15.191Z,27.64
2023-02-03T12:26:22.375Z,27.70
2023-02-03T12:31:29.705Z,27.67
2023-02-03T12:36:36.742Z,27.67
2023-02-03T12:41:43.935Z,27.70
2023-02-03T12:46:51.141Z,27.69
2023-02-03T12:51:58.313Z,27.70
2023-02-03T12:57:06.183Z,27.80
2023-02-03T13:02:13.343Z,27.78
2023-02-03T13:07:20.457Z,27.79
2023-02-03T13:12:27.683Z,27.81
2023-02-03T13:17:34.871Z,27.85
2023-02-03T13:22:42.046Z,27.86
2023-02-03T13:27:49.259Z,27.85
2023-02-03T13:32:56.432Z,27.87
2023-02-03T13:38:03.632Z,27.95
2023-02-03T13:43:10.902Z,27.94
2023-02-03T13:48:18.215Z,27.95
2023-02-03T13:53:25.454Z,27.96
2023-02-03T13:58:32.742Z,27.99
2023-02-03T14:03:40.147Z,28.03
2023-02-03T14:08:47.280Z,28.04
2023-02-03T14:13:54.635Z,28.06
2023-02-03T14:19:01.902Z,28.04
2023-02-03T14:24:09.151Z,28.10
2023-02-03T14:29:16.341Z,28.09
2023-02-03T14:34:23.538Z,28.12
2023-02-03T14:39:30.783Z,28.10
2023-02-03T14:44:37.983Z,28.42
2023-02-03T14:49:45.206Z,28.77
2023-02-03T14:54:52.366Z,28.15
2023-02-03T14:59:59.578Z,28.03
2023-02-03T15:05:06.812Z,27.79
2023-02-03T15:10:13.905Z,27.54
2023-02-03T15:15:21.085Z,27.51
2023-02-03T15:20:28.305Z,27.40
2023-02-03T15:25:35.441Z,27.22
2023-02-03T15:30:42.633Z,27.07
2023-02-03T15:35:49.837Z,26.97
2023-02-03T15:40:57.005Z,27.70
2023-02-03T15:46:04.343Z,27.86
2023-02-03T15:51:11.486Z,27.63
2023-02-03T15:56:18.653Z,27.63
2023-02-03T16:01:25.877Z,27.46
2023-02-03T16:06:33.033Z,27.45
2023-02-03T16:11:40.256Z,27.23
2023-02-03T16:17:02.730Z,27.25
2023-02-03T16:21:54.867Z,27.08
2023-02-03T16:27:01.985Z,26.72
2023-02-03T16:32:09.225Z,26.36
2023-02-03T16:37:16.390Z,26.36
2023-02-03T16:42:23.621Z,26.39
2023-02-03T16:47:30.824Z,26.42
2023-02-03T16:52:38.110Z,26.25
2023-02-03T16:57:45.285Z,26.19
2023-02-03T17:02:52.801Z,26.04
2023-02-03T17:08:00.189Z,26.06
2023-02-03T17:13:07.359Z,25.88
2023-02-03T17:18:14.936Z,25.91
2023-02-03T17:23:22.344Z,25.88
2023-02-03T17:28:29.511Z,25.76
2023-02-03T17:33:36.972Z,25.80
2023-02-03T17:53:28.668Z,25.57
2023-02-03T17:58:36.069Z,25.51
2023-02-03T18:03:43.466Z,25.47
2023-02-03T18:08:50.763Z,25.53
2023-02-03T18:13:58.290Z,25.49
2023-02-03T18:19:05.602Z,25.38
2023-02-03T18:24:13.146Z,25.28
2023-02-03T18:29:20.809Z,25.37
2023-02-03T18:34:28.317Z,25.30
2023-02-03T18:39:35.996Z,25.26
2023-02-03T18:44:43.277Z,25.26
2023-02-03T18:49:50.771Z,25.18
2023-02-03T18:54:58.421Z,25.23
2023-02-03T19:00:06.004Z,25.17
2023-02-03T19:05:13.541Z,25.11
2023-02-03T19:10:22.175Z,25.06
2023-02-03T19:15:29.630Z,25.03
2023-02-03T19:20:37.190Z,25.08
2023-02-03T19:25:44.827Z,25.10
2023-02-03T19:30:57.513Z,25.12
2023-02-03T19:36:00.134Z,25.12
2023-02-03T19:41:07.872Z,25.05
2023-02-03T19:46:16.757Z,24.90
2023-02-03T19:51:24.427Z,25.03
2023-02-03T19:56:32.063Z,24.99
2023-02-03T20:01:39.748Z,24.97
2023-02-03T20:06:46.979Z,24.85
2023-02-03T20:11:54.482Z,24.76
2023-02-03T20:17:02.075Z,24.84
2023-02-03T20:22:09.689Z,24.87
2023-02-03T20:27:17.426Z,24.77
2023-02-03T20:32:25.023Z,24.78
2023-02-03T20:37:32.813Z,24.73
2023-02-03T20:42:40.683Z,24.72
2023-02-03T20:47:48.009Z,24.75
2023-02-03T20:52:55.489Z,25.08
2023-02-03T20:58:02.836Z,25.08
2023-02-03T21:03:10.306Z,25.17
2023-02-03T21:08:17.699Z,25.24
2023-02-03T21:13:25.159Z,25.29
2023-02-03T21:18:32.741Z,25.34
2023-02-03T21:23:40.562Z,25.28
2023-02-03T21:28:48.097Z,25.38
2023-02-03T21:33:55.404Z,25.50
2023-02-03T21:39:02.888Z,25.47
2023-02-03T21:44:10.429Z,25.41
2023-02-03T21:49:18.020Z,25.39
2023-02-03T21:54:25.349Z,25.41
2023-02-03T21:59:32.588Z,25.23
2023-02-03T22:04:39.809Z,25.33
2023-02-03T22:09:46.978Z,25.38
2023-02-03T22:14:54.373Z,25.32
2023-02-03T22:20:01.665Z,25.31
2023-02-03T22:25:08.869Z,25.29
2023-02-03T22:30:16.043Z,25.29
2023-02-03T22:35:23.243Z,25.20
2023-02-03T22:40:30.980Z,25.18
2023-02-03T22:45:37.725Z,25.27
2023-02-03T22:50:45.088Z,25.34
2023-02-03T22:55:52.352Z,25.44
2023-02-03T23:00:59.567Z,25.35
2023-02-03T23:06:06.819Z,25.36
2023-02-03T23:11:14.017Z,25.39
2023-02-03T23:16:21.231Z,25.40
2023-02-03T23:21:28.383Z,25.30
2023-02-03T23:26:35.593Z,25.30
2023-02-03T23:31:43.037Z,25.26
2023-02-03T23:36:50.085Z,25.32
2023-02-03T23:41:57.337Z,25.36
2023-02-03T23:47:04.538Z,25.34
2023-02-03T23:52:11.760Z,25.32
2023-02-03T23:57:19.061Z,25.28
